createdAt,value
2022-12-23T00:00:35.906Z,22.33
2022-12-23T00:03:02.819Z,21.95
2022-12-23T00:05:37.358Z,21.35
2022-12-23T00:08:05.124Z,22.60
2022-12-23T00:10:31.781Z,23.08
2022-12-23T00:13:16.928Z,23.05
2022-12-23T00:15:43.569Z,22.00
2022-12-23T00:18:10.204Z,23.67
2022-12-23T00:20:36.887Z,22.02
2022-12-23T00:23:06.372Z,21.85
2022-12-23T00:25:41.740Z,21.95
2022-12-23T00:28:20.970Z,23.13
2022-12-23T00:30:52.276Z,21.05
2022-12-23T00:33:24.553Z,23.13
2022-12-23T00:35:51.676Z,22.63
2022-12-23T00:38:39.302Z,21.83
2022-12-23T00:41:29.018Z,23.33
2022-12-23T00:43:56.246Z,23.10
2022-12-23T00:46:23.094Z,22.55
2022-12-23T00:49:08.405Z,22.75
2022-12-23T00:51:35.093Z,21.38
2022-12-23T00:54:02.179Z,22.02
2022-12-23T00:56:29.135Z,23.70
2022-12-23T00:58:55.849Z,22.23
2022-12-23T01:01:41.302Z,23.52
2022-12-23T01:04:30.279Z,23.13
2022-12-23T01:06:57.251Z,23.95
2022-12-23T01:09:24.761Z,24.08
2022-12-23T01:11:51.652Z,24.38
2022-12-23T01:14:18.405Z,24.83
2022-12-23T01:16:45.425Z,24.15
2022-12-23T01:19:12.735Z,23.58
2022-12-23T01:21:39.457Z,24.02
2022-12-23T01:24:06.690Z,24.15
2022-12-23T01:26:33.457Z,23.25
2022-12-23T01:29:00.428Z,23.20
2022-12-23T01:31:28.100Z,21.50
2022-12-23T01:33:55.008Z,22.08
2022-12-23T01:36:22.608Z,22.05
2022-12-23T01:38:49.782Z,21.75
2022-12-23T01:41:42.675Z,19.90
2022-12-23T01:44:46.994Z,20.80
2022-12-23T01:47:26.005Z,21.38
2022-12-23T01:50:01.037Z,21.75
2022-12-23T01:52:28.788Z,22.23
2022-12-23T01:54:56.138Z,22.83
2022-12-23T01:57:23.508Z,21.90
2022-12-23T02:00:09.355Z,22.52
2022-12-23T02:02:56.563Z,21.35
2022-12-23T02:05:23.997Z,23.75
2022-12-23T02:08:11.826Z,23.75
2022-12-23T02:10:55.314Z,22.52
2022-12-23T02:14:00.359Z,23.95
2022-12-23T02:16:28.838Z,24.60
2022-12-23T02:19:02.002Z,24.25
2022-12-23T02:21:56.636Z,23.92
2022-12-23T02:24:41.397Z,23.48
2022-12-23T02:27:33.219Z,25.90
2022-12-23T02:30:19.790Z,26.25
2022-12-23T02:33:04.658Z,25.23
2022-12-23T02:35:46.265Z,25.77
2022-12-23T02:38:23.467Z,25.10
2022-12-23T02:41:04.327Z,26.73
2022-12-23T02:43:41.474Z,26.38
2022-12-23T02:46:13.988Z,26.50
2022-12-23T02:48:45.642Z,25.77
2022-12-23T02:51:14.526Z,26.02
2022-12-23T02:53:53.764Z,26.10
2022-12-23T02:56:21.992Z,27.80
2022-12-23T02:58:54.387Z,27.40
2022-12-23T03:01:22.856Z,26.77
2022-12-23T03:03:51.106Z,27.88
2022-12-23T03:06:40.279Z,29.00
2022-12-23T03:09:08.214Z,28.55
2022-12-23T03:12:00.791Z,27.90
2022-12-23T03:14:49.105Z,29.17
2022-12-23T03:17:46.615Z,27.98
2022-12-23T03:20:25.483Z,30.95
2022-12-23T03:23:08.027Z,30.38
2022-12-23T03:25:45.006Z,31.20
2022-12-23T03:28:20.771Z,32.15
2022-12-23T03:30:53.195Z,33.25
2022-12-23T03:33:26.832Z,35.03
2022-12-23T03:36:00.319Z,35.05
2022-12-23T03:38:28.743Z,36.85
2022-12-23T03:41:01.588Z,34.47
2022-12-23T03:43:50.134Z,36.80
2022-12-23T03:46:22.935Z,37.83
2022-12-23T03:48:56.199Z,36.95
2022-12-23T03:51:30.036Z,37.10
2022-12-23T03:54:05.040Z,34.60
2022-12-23T03:56:36.336Z,37.55
2022-12-23T03:59:14.691Z,36.97
2022-12-23T04:02:04.413Z,37.80
2022-12-23T04:04:55.432Z,37.95
2022-12-23T04:07:29.037Z,35.78
2022-12-23T04:09:56.256Z,36.72
2022-12-23T04:12:25.442Z,35.65
2022-12-23T04:14:52.360Z,37.75
2022-12-23T04:17:19.849Z,36.05
2022-12-23T04:19:46.944Z,36.70
2022-12-23T04:22:15.347Z,36.10
2022-12-23T04:24:42.596Z,37.67
2022-12-23T04:27:13.392Z,37.55
2022-12-23T04:29:40.097Z,35.42
2022-12-23T04:32:07.829Z,36.78
2022-12-23T04:34:34.677Z,37.72
2022-12-23T04:37:01.394Z,36.90
2022-12-23T04:39:28.209Z,36.20
2022-12-23T04:41:54.828Z,35.80
2022-12-23T04:44:21.529Z,36.35
2022-12-23T04:46:48.330Z,37.70
2022-12-23T04:49:15.107Z,36.20
2022-12-23T04:51:41.726Z,37.42
2022-12-23T04:54:08.468Z,38.13
2022-12-23T04:56:35.135Z,35.17
2022-12-23T04:59:02.433Z,36.03
2022-12-23T05:01:29.804Z,36.35
2022-12-23T05:03:56.727Z,35.97
2022-12-23T05:06:23.489Z,35.95
2022-12-23T05:08:50.173Z,34.63
2022-12-23T05:11:16.874Z,36.08
2022-12-23T05:13:45.251Z,35.85
2022-12-23T05:16:12.008Z,34.25
2022-12-23T05:18:38.673Z,36.03
2022-12-23T05:21:05.530Z,36.90
2022-12-23T05:23:32.222Z,36.72
2022-12-23T05:25:58.998Z,34.08
2022-12-23T05:28:25.673Z,34.30
2022-12-23T05:31:06.990Z,33.78
2022-12-23T05:33:35.082Z,32.85
2022-12-23T05:36:01.885Z,35.13
2022-12-23T05:38:28.646Z,33.40
2022-12-23T05:40:55.297Z,34.03
2022-12-23T05:43:22.140Z,36.28
2022-12-23T05:45:49.894Z,35.58
2022-12-23T05:48:16.968Z,36.25
2022-12-23T05:50:43.763Z,35.60
2022-12-23T05:53:10.586Z,35.10
2022-12-23T05:55:37.213Z,35.60
2022-12-23T05:58:03.949Z,37.80
2022-12-23T06:00:30.534Z,36.35
2022-12-23T06:02:57.525Z,40.97
2022-12-23T06:05:24.308Z,39.65
2022-12-23T06:07:50.978Z,43.65
2022-12-23T06:10:17.759Z,41.42
2022-12-23T06:12:44.453Z,42.90
2022-12-23T06:15:11.660Z,47.35
2022-12-23T06:17:38.599Z,44.95
2022-12-23T06:20:05.895Z,51.05
2022-12-23T06:22:32.590Z,47.83
2022-12-23T06:24:59.254Z,44.05
2022-12-23T06:27:25.872Z,40.33
2022-12-23T06:29:52.745Z,39.70
2022-12-23T06:32:19.543Z,43.97
2022-12-23T06:34:46.754Z,38.75
2022-12-23T06:37:13.397Z,35.28
2022-12-23T06:39:40.055Z,31.77
2022-12-23T06:42:06.676Z,32.03
2022-12-23T06:44:33.360Z,30.42
2022-12-23T06:47:00.020Z,38.60
2022-12-23T06:49:26.685Z,33.38
2022-12-23T06:51:53.361Z,35.65
2022-12-23T06:54:20.109Z,30.63
2022-12-23T06:56:46.747Z,34.70
2022-12-23T06:59:13.431Z,30.05
2022-12-23T07:01:40.724Z,38.50
2022-12-23T07:04:07.612Z,32.88
2022-12-23T07:06:34.635Z,26.05
2022-12-23T07:09:01.297Z,32.15
2022-12-23T07:11:28.068Z,31.10
2022-12-23T07:13:54.794Z,33.85
2022-12-23T07:16:21.603Z,32.03
2022-12-23T07:18:48.487Z,27.42
2022-12-23T07:21:21.584Z,36.75
2022-12-23T07:23:53.255Z,32.47
2022-12-23T07:26:19.917Z,34.13
2022-12-23T07:28:48.377Z,32.35
2022-12-23T07:31:15.322Z,35.75
2022-12-23T07:33:42.189Z,30.70
2022-12-23T07:36:09.443Z,29.05
2022-12-23T07:38:36.394Z,30.52
2022-12-23T07:41:03.103Z,32.03
2022-12-23T07:43:29.760Z,31.35
2022-12-23T07:46:00.263Z,31.30
2022-12-23T07:48:28.166Z,31.90
2022-12-23T07:51:00.814Z,28.80
2022-12-23T07:53:28.042Z,30.35
2022-12-23T07:55:56.641Z,28.90
2022-12-23T07:58:24.067Z,30.50
2022-12-23T08:00:51.318Z,29.77
2022-12-23T08:03:18.137Z,28.35
2022-12-23T08:05:44.889Z,29.02
2022-12-23T08:08:12.000Z,27.80
2022-12-23T08:10:44.567Z,30.05
2022-12-23T08:13:14.945Z,32.78
2022-12-23T08:15:41.615Z,30.77
2022-12-23T08:18:08.400Z,31.90
2022-12-23T08:20:35.134Z,31.90
2022-12-23T08:23:01.748Z,30.20
2022-12-23T08:25:28.483Z,29.27
2022-12-23T08:27:55.138Z,30.08
2022-12-23T08:30:21.778Z,28.88
2022-12-23T08:32:48.620Z,28.67
2022-12-23T08:35:15.412Z,28.35
2022-12-23T08:37:44.353Z,29.38
2022-12-23T08:40:11.963Z,28.33
2022-12-23T08:42:38.735Z,26.02
2022-12-23T08:45:05.682Z,29.77
2022-12-23T08:47:32.283Z,29.27
2022-12-23T08:49:59.011Z,29.95
2022-12-23T08:52:25.662Z,28.30
2022-12-23T08:54:53.124Z,26.77
2022-12-23T08:57:20.079Z,27.95
2022-12-23T08:59:47.279Z,26.73
2022-12-23T09:02:14.449Z,26.15
2022-12-23T09:04:41.731Z,27.60
2022-12-23T09:07:08.504Z,25.83
2022-12-23T09:09:40.071Z,25.35
2022-12-23T09:12:06.841Z,24.00
2022-12-23T09:14:33.629Z,26.15
2022-12-23T09:17:00.242Z,24.48
2022-12-23T09:19:26.843Z,24.40
2022-12-23T09:21:53.623Z,27.58
2022-12-23T09:24:20.467Z,25.30
2022-12-23T09:26:47.171Z,22.95
2022-12-23T09:29:13.786Z,24.30
2022-12-23T09:31:40.571Z,23.50
2022-12-23T09:34:07.251Z,23.50
2022-12-23T09:36:34.173Z,22.63
2022-12-23T09:39:01.251Z,21.25
2022-12-23T09:41:47.545Z,22.02
2022-12-23T09:44:39.585Z,22.05
2022-12-23T09:47:11.162Z,20.65
2022-12-23T09:49:44.908Z,21.42
2022-12-23T09:52:16.469Z,21.40
2022-12-23T09:54:48.647Z,22.67
2022-12-23T09:57:36.385Z,21.50
2022-12-23T10:00:16.943Z,21.30
2022-12-23T10:03:22.680Z,20.95
2022-12-23T10:06:02.882Z,20.58
2022-12-23T10:08:39.833Z,21.05
2022-12-23T10:11:26.317Z,21.35
2022-12-23T10:14:10.907Z,20.02
2022-12-23T10:16:45.398Z,19.27
2022-12-23T10:19:26.630Z,21.17
2022-12-23T10:22:02.659Z,21.08
2022-12-23T10:24:53.820Z,20.58
2022-12-23T10:27:42.757Z,20.23
2022-12-23T10:30:51.478Z,20.83
2022-12-23T10:33:16.080Z,20.40
2022-12-23T10:36:12.128Z,20.38
2022-12-23T10:39:10.914Z,20.20
2022-12-23T10:41:52.415Z,20.50
2022-12-23T10:44:46.813Z,18.88
2022-12-23T10:47:31.557Z,17.92
2022-12-23T10:50:28.343Z,19.38
2022-12-23T10:58:18.236Z,19.92
2022-12-23T11:00:59.509Z,20.05
2022-12-23T11:03:32.655Z,21.02
2022-12-23T11:05:59.975Z,24.45
2022-12-23T11:08:29.077Z,22.38
2022-12-23T11:10:56.770Z,19.80
2022-12-23T11:13:32.721Z,18.00
2022-12-23T11:16:24.144Z,19.52
2022-12-23T11:19:04.274Z,18.38
2022-12-23T11:21:33.311Z,20.58
2022-12-23T11:24:38.081Z,17.55
2022-12-23T11:27:12.913Z,22.77
2022-12-23T11:29:46.759Z,17.83
2022-12-23T11:32:25.531Z,18.55
2022-12-23T11:34:54.322Z,15.68
2022-12-23T11:37:41.336Z,18.58
2022-12-23T11:40:38.605Z,16.65
2022-12-23T11:43:12.922Z,15.00
2022-12-23T11:45:39.896Z,15.30
2022-12-23T11:48:26.327Z,14.75
2022-12-23T11:51:04.506Z,18.50
2022-12-23T11:53:32.389Z,14.05
2022-12-23T11:56:07.632Z,14.30
2022-12-23T11:58:44.670Z,16.30
2022-12-23T12:01:17.771Z,13.73
2022-12-23T12:03:49.571Z,14.90
2022-12-23T12:06:19.445Z,15.23
2022-12-23T12:08:50.634Z,15.88
2022-12-23T12:11:23.210Z,14.93
2022-12-23T12:13:55.409Z,17.02
2022-12-23T12:16:31.592Z,14.73
2022-12-23T12:19:09.319Z,15.45
2022-12-23T12:21:38.219Z,15.32
2022-12-23T12:24:24.045Z,15.38
2022-12-23T12:27:00.159Z,13.70
2022-12-23T12:29:48.802Z,14.52
2022-12-23T12:32:45.587Z,15.35
2022-12-23T12:35:35.831Z,14.90
2022-12-23T12:38:29.832Z,15.48
2022-12-23T12:41:19.384Z,14.23
2022-12-23T12:44:07.773Z,13.48
2022-12-23T12:46:56.376Z,13.82
2022-12-23T12:49:38.327Z,12.60
2022-12-23T12:52:11.595Z,11.75
2022-12-23T12:54:53.004Z,11.60
2022-12-23T12:57:22.568Z,12.15
2022-12-23T12:59:52.727Z,13.68
2022-12-23T13:02:49.318Z,12.73
2022-12-23T13:05:54.410Z,12.20
2022-12-23T13:08:52.183Z,11.77
2022-12-23T13:11:33.324Z,12.55
2022-12-23T13:14:34.418Z,13.27
2022-12-23T13:17:41.596Z,12.95
2022-12-23T13:20:45.432Z,13.45
2022-12-23T13:23:45.816Z,13.90
2022-12-23T13:26:37.491Z,13.02
2022-12-23T13:29:29.704Z,13.77
2022-12-23T13:32:41.908Z,13.65
2022-12-23T13:35:46.597Z,12.68
2022-12-23T13:38:38.486Z,13.52
2022-12-23T13:41:46.004Z,13.80
2022-12-23T13:44:15.012Z,14.13
2022-12-23T13:47:15.734Z,13.77
2022-12-23T13:50:01.455Z,12.95
2022-12-23T13:52:49.945Z,14.93
2022-12-23T13:55:38.035Z,14.75
2022-12-23T13:58:18.993Z,14.50
2022-12-23T14:00:45.884Z,14.10
2022-12-23T14:03:22.983Z,14.52
2022-12-23T14:05:51.756Z,15.35
2022-12-23T14:08:18.315Z,16.52
2022-12-23T14:10:56.119Z,14.48
2022-12-23T14:13:42.814Z,14.48
2022-12-23T14:16:15.921Z,15.18
2022-12-23T14:18:54.818Z,14.48
2022-12-23T14:21:38.807Z,16.33
2022-12-23T14:24:26.814Z,17.25
2022-12-23T14:27:21.572Z,16.23
2022-12-23T14:30:07.227Z,16.77
2022-12-23T14:32:53.257Z,16.27
2022-12-23T14:35:24.675Z,16.48
2022-12-23T14:38:16.706Z,17.05
2022-12-23T14:40:43.739Z,19.45
2022-12-23T14:43:22.844Z,20.27
2022-12-23T14:45:55.088Z,20.50
2022-12-23T14:48:34.189Z,20.17
2022-12-23T14:51:21.659Z,20.85
2022-12-23T14:53:54.550Z,20.38
2022-12-23T14:56:41.921Z,20.05
2022-12-23T14:59:27.090Z,21.48
2022-12-23T15:02:16.341Z,21.98
2022-12-23T15:04:55.738Z,21.65
2022-12-23T15:07:35.095Z,22.92
2022-12-23T15:10:08.553Z,23.10
2022-12-23T15:12:43.653Z,22.55
2022-12-23T15:15:22.903Z,24.38
2022-12-23T15:18:00.474Z,23.52
2022-12-23T15:20:27.251Z,22.40
2022-12-23T15:22:59.326Z,24.88
2022-12-23T15:25:28.938Z,24.33
2022-12-23T15:28:01.440Z,25.92
2022-12-23T15:30:33.986Z,24.92
2022-12-23T15:33:04.169Z,25.08
2022-12-23T15:35:35.741Z,25.42
2022-12-23T15:38:03.351Z,27.30
2022-12-23T15:40:36.160Z,25.95
2022-12-23T15:43:18.208Z,25.75
2022-12-23T15:45:45.005Z,25.75
2022-12-23T15:48:28.531Z,26.58
2022-12-23T15:51:49.675Z,27.10
2022-12-23T15:54:09.045Z,27.08
2022-12-23T15:56:49.402Z,28.13
2022-12-23T15:59:26.289Z,26.45
2022-12-23T16:01:53.549Z,28.65
2022-12-23T16:04:26.488Z,26.58
2022-12-23T16:06:54.245Z,30.20
2022-12-23T16:09:20.995Z,26.70
2022-12-23T16:11:58.718Z,26.15
2022-12-23T16:14:31.452Z,25.50
2022-12-23T16:17:13.465Z,30.40
2022-12-23T16:19:47.273Z,28.17
2022-12-23T16:22:26.786Z,30.55
2022-12-23T16:24:56.638Z,26.10
2022-12-23T16:27:37.706Z,29.17
2022-12-23T16:30:32.657Z,27.92
2022-12-23T16:33:06.829Z,29.38
2022-12-23T16:35:36.609Z,28.33
2022-12-23T16:38:21.636Z,27.27
2022-12-23T16:40:51.311Z,30.00
2022-12-23T16:43:18.675Z,31.70
2022-12-23T16:45:49.747Z,33.13
2022-12-23T16:48:28.250Z,33.35
2022-12-23T16:50:54.997Z,27.92
2022-12-23T16:53:21.851Z,28.33
2022-12-23T16:55:55.405Z,30.20
2022-12-23T16:58:25.401Z,24.05
2022-12-23T17:00:53.173Z,23.95
2022-12-23T17:03:20.603Z,27.48
2022-12-23T17:05:49.523Z,27.05
2022-12-23T17:08:16.108Z,25.30
2022-12-23T17:10:44.676Z,28.17
2022-12-23T17:13:13.750Z,22.02
2022-12-23T17:15:40.906Z,23.02
2022-12-23T17:18:16.341Z,22.02
2022-12-23T17:20:48.023Z,23.73
2022-12-23T17:23:35.142Z,22.17
2022-12-23T17:26:01.796Z,21.00
2022-12-23T17:28:32.683Z,22.00
2022-12-23T17:31:00.266Z,21.20
2022-12-23T17:33:30.094Z,19.70
2022-12-23T17:35:57.284Z,19.52
2022-12-23T17:38:24.547Z,20.95
2022-12-23T17:40:51.647Z,22.05
2022-12-23T17:43:18.649Z,22.08
2022-12-23T17:45:45.805Z,21.63
2022-12-23T17:48:19.768Z,19.48
2022-12-23T17:50:49.221Z,18.85
2022-12-23T17:53:17.843Z,18.55
2022-12-23T17:55:45.051Z,20.23
2022-12-23T17:58:12.171Z,18.80
2022-12-23T18:00:39.137Z,21.40
2022-12-23T18:03:06.901Z,18.58
2022-12-23T18:05:35.583Z,20.83
2022-12-23T18:08:03.082Z,20.80
2022-12-23T18:10:39.075Z,21.13
2022-12-23T18:13:14.076Z,18.70
2022-12-23T18:15:43.697Z,20.42
2022-12-23T18:18:28.536Z,19.50
2022-12-23T18:20:59.920Z,21.10
2022-12-23T18:23:28.929Z,20.33
2022-12-23T18:25:56.732Z,19.90
2022-12-23T18:28:24.323Z,19.95
2022-12-23T18:30:52.455Z,19.90
2022-12-23T18:33:19.544Z,21.38
2022-12-23T18:35:48.910Z,20.35
2022-12-23T18:38:17.268Z,18.92
2022-12-23T18:40:44.949Z,18.88
2022-12-23T18:46:01.874Z,19.05
2022-12-23T18:48:28.557Z,19.65
2022-12-23T18:50:55.246Z,19.25
2022-12-23T18:53:24.982Z,18.85
2022-12-23T18:55:54.064Z,18.27
2022-12-23T18:58:22.440Z,18.10
2022-12-23T19:00:51.069Z,20.35
2022-12-23T19:03:29.145Z,19.45
2022-12-23T19:05:57.102Z,18.95
2022-12-23T19:08:27.098Z,19.10
2022-12-23T19:10:57.677Z,17.80
2022-12-23T19:13:24.789Z,20.98
2022-12-23T19:15:51.985Z,17.13
2022-12-23T19:18:21.892Z,18.75
2022-12-23T19:20:49.616Z,18.92
2022-12-23T19:23:16.664Z,18.27
2022-12-23T19:25:52.449Z,18.92
2022-12-23T19:28:21.894Z,17.92
2022-12-23T19:30:49.010Z,18.52
2022-12-23T19:33:16.327Z,19.33
2022-12-23T19:35:43.924Z,17.63
2022-12-23T19:38:11.150Z,18.75
2022-12-23T19:40:38.302Z,17.58
2022-12-23T19:43:06.702Z,18.15
2022-12-23T19:45:33.384Z,16.23
2022-12-23T19:48:02.013Z,17.17
2022-12-23T19:50:28.703Z,17.10
2022-12-23T19:52:56.483Z,16.70
2022-12-23T19:55:23.739Z,15.65
2022-12-23T19:57:51.778Z,16.67
2022-12-23T20:00:18.634Z,16.27
2022-12-23T20:02:45.369Z,16.63
2022-12-23T20:05:12.278Z,15.13
2022-12-23T20:07:39.023Z,15.55
2022-12-23T20:10:06.744Z,15.40
2022-12-23T20:12:33.496Z,16.48
2022-12-23T20:15:00.181Z,14.80
2022-12-23T20:17:27.028Z,14.90
2022-12-23T20:19:53.641Z,14.20
2022-12-23T20:22:20.378Z,15.77
2022-12-23T20:24:47.163Z,14.27
2022-12-23T20:27:15.872Z,14.20
2022-12-23T20:29:43.179Z,14.85
2022-12-23T20:32:10.253Z,14.32
2022-12-23T20:34:39.964Z,13.88
2022-12-23T20:37:07.859Z,12.82
2022-12-23T20:39:35.311Z,12.40
2022-12-23T20:42:02.057Z,13.07
2022-12-23T20:44:37.294Z,12.88
2022-12-23T20:47:07.539Z,13.15
2022-12-23T20:49:34.351Z,13.10
2022-12-23T20:52:01.469Z,12.63
2022-12-23T20:54:33.430Z,12.45
2022-12-23T20:57:01.421Z,12.57
2022-12-23T20:59:28.195Z,12.48
2022-12-23T21:01:54.998Z,12.82
2022-12-23T21:07:03.287Z,12.57
2022-12-23T21:09:32.708Z,13.07
2022-12-23T21:11:59.491Z,13.50
2022-12-23T21:14:28.022Z,12.93
2022-12-23T21:22:00.844Z,13.32
2022-12-23T21:25:26.226Z,13.18
2022-12-23T21:27:53.005Z,12.18
2022-12-23T21:30:19.781Z,13.93
2022-12-23T21:32:49.757Z,13.07
2022-12-23T21:35:16.558Z,12.77
2022-12-23T21:37:43.506Z,12.40
2022-12-23T21:40:12.096Z,13.25
2022-12-23T21:42:38.793Z,13.15
2022-12-23T21:45:05.967Z,13.57
2022-12-23T21:47:32.843Z,13.10
2022-12-23T21:49:59.540Z,12.60
2022-12-23T21:52:26.313Z,14.02
2022-12-23T21:54:58.194Z,12.98
2022-12-23T21:57:25.074Z,13.13
2022-12-23T21:59:52.190Z,13.52
2022-12-23T22:02:18.944Z,13.20
2022-12-23T22:04:45.630Z,12.23
2022-12-23T22:07:12.305Z,12.73
2022-12-23T22:09:39.019Z,13.65
2022-12-23T22:12:05.968Z,13.38
2022-12-23T22:14:32.930Z,12.77
2022-12-23T22:16:59.578Z,12.88
2022-12-23T22:19:26.285Z,12.70
2022-12-23T22:21:53.570Z,13.90
2022-12-23T22:24:20.219Z,14.35
2022-12-23T22:26:49.368Z,13.68
2022-12-23T22:29:16.158Z,12.80
2022-12-23T22:31:55.028Z,12.68
2022-12-23T22:34:24.512Z,14.00
2022-12-23T22:36:51.341Z,12.82
2022-12-23T22:39:43.664Z,12.80
2022-12-23T22:42:10.845Z,13.70
2022-12-23T22:44:37.484Z,12.98
2022-12-23T22:47:04.260Z,12.98
2022-12-23T22:49:31.109Z,12.82
2022-12-23T22:51:57.918Z,13.00
2022-12-23T22:54:25.071Z,13.50
2022-12-23T22:57:00.833Z,12.55
2022-12-23T22:59:34.309Z,12.70
2022-12-23T23:02:05.414Z,12.68
2022-12-23T23:04:32.190Z,12.98
2022-12-23T23:06:58.989Z,11.65
2022-12-23T23:12:23.120Z,11.68
2022-12-23T23:14:52.480Z,12.55
2022-12-23T23:17:21.116Z,12.95
2022-12-23T23:19:48.176Z,12.43
2022-12-23T23:22:16.117Z,12.13
2022-12-23T23:24:43.874Z,12.48
2022-12-23T23:27:10.916Z,11.57
2022-12-23T23:29:37.647Z,11.85
2022-12-23T23:32:05.962Z,12.70
2022-12-23T23:34:33.664Z,11.93
2022-12-23T23:37:00.631Z,11.73
2022-12-23T23:39:27.165Z,11.65
2022-12-23T23:41:53.788Z,11.27
2022-12-23T23:44:20.676Z,11.93
2022-12-23T23:46:47.703Z,11.77
2022-12-23T23:49:14.542Z,11.15
2022-12-23T23:51:43.013Z,11.38
2022-12-23T23:54:09.686Z,12.65
2022-12-23T23:56:39.171Z,11.05
2022-12-23T23:59:07.353Z,11.75
